M/V Who Cares — WCY8987 — position and weather

sailwx.info

Track history (hours):
 
Tides and Currents Weather Stations Pressure Air Temp Water Temp Dewpoint Dewpoint Depression Visibility Wind Speed Wind Dir Waves Ship Positions

M/V Who Cares

Owner: WINGSTONE TOYS COMPANY LLC, PAOLI, PA. More information available from US FCC via Universal Licensing System.

Last reported at 2018-Mar-25 10:33 UTC. Time now 2018-May-24 00:14 UTC.
Position N 24°27' W 075°48'.
Warning: this ship's position is 59 days out of date.

Length 35 m.

Type: Pleasure craft. MMSI: 366762070.

Date/timePositionNaut miles runAvg speedWind from/ knotsBaromVisibWave heightAir tempDewpointWater temp
2018-Mar-25 10:33N 24°27' W 075°48'1 8.6
2018-Mar-25 10:28N 24°27' W 075°48'4 8.4
2018-Mar-25 09:58N 24°29' W 075°53'5 8.1
2018-Mar-25 09:24N 24°31' W 075°57'4 7.7
2018-Mar-25 08:54N 24°32' W 076°01'3 7.9
2018-Mar-25 08:30N 24°33' W 076°04'4 7.9
2018-Mar-25 07:57N 24°35' W 076°09'258 6.5
2018-Mar-23 16:26N 27°00' W 080°06'0 0.9
2018-Mar-23 16:01N 27°00' W 080°06'0 0.0
2018-Mar-23 15:31N 27°00' W 080°06'0 0.0
2018-Mar-23 14:55N 27°00' W 080°06'0 0.0
2018-Mar-23 14:22N 27°00' W 080°06'0 0.0
2018-Mar-23 14:01N 27°00' W 080°06'0 0.0
2018-Mar-23 13:28N 27°00' W 080°06'0 0.0
2018-Mar-23 13:01N 27°00' W 080°06'0 0.0
2018-Mar-23 12:25N 27°00' W 080°06'0 0.0
2018-Mar-23 11:55N 27°00' W 080°06'0 0.0
2018-Mar-23 11:28N 27°00' W 080°06'0 0.0
2018-Mar-23 10:55N 27°00' W 080°06'0 0.0
2018-Mar-23 10:28N 27°00' W 080°06'0 0.0
2018-Mar-23 09:58N 27°00' W 080°06'0 0.0
2018-Mar-23 09:22N 27°00' W 080°06'0 0.0
2018-Mar-23 08:58N 27°00' W 080°06'0 0.0
2018-Mar-23 08:22N 27°00' W 080°06'0 0.0
2018-Mar-23 07:58N 27°00' W 080°06'0 0.0
2018-Mar-23 07:28N 27°00' W 080°06'0 0.0
2018-Mar-23 06:43N 27°00' W 080°06'0 0.0
2018-Mar-23 06:25N 27°00' W 080°06'0 0.0
2018-Mar-23 05:55N 27°00' W 080°06'0 0.0
2018-Mar-23 05:28N 27°00' W 080°06'0 0.0
2018-Mar-23 04:58N 27°00' W 080°06'0 0.0
2018-Mar-23 04:28N 27°00' W 080°06'0 0.0
2018-Mar-23 03:49N 27°00' W 080°06'0 0.0
2018-Mar-23 03:19N 27°00' W 080°06'0 0.0
2018-Mar-23 02:58N 27°00' W 080°06'0 0.0
2018-Mar-23 02:28N 27°00' W 080°06'0 0.0
2018-Mar-23 01:58N 27°00' W 080°06'0 0.0
2018-Mar-23 01:22N 27°00' W 080°06'0 0.0
2018-Mar-23 00:52N 27°00' W 080°06'0 0.0
2018-Mar-23 00:22N 27°00' W 080°06'0 0.0
2018-Mar-22 23:46N 27°00' W 080°06'0 0.0
2018-Mar-22 23:28N 27°00' W 080°06'0 0.0
2018-Mar-22 22:58N 27°00' W 080°06'0 0.0
2018-Mar-22 22:25N 27°00' W 080°06'0 0.0
2018-Mar-22 21:55N 27°00' W 080°06'0 0.0
2018-Mar-22 21:28N 27°00' W 080°06'0 0.0
2018-Mar-22 19:22N 27°00' W 080°06'0 0.0
2018-Mar-22 18:55N 27°00' W 080°06'0 0.0
2018-Mar-22 18:19N 27°00' W 080°06'0 0.0
2018-Mar-22 17:58N 27°00' W 080°06'0 0.0
2018-Mar-22 17:19N 27°00' W 080°06'0 0.0
2018-Mar-22 16:55N 27°00' W 080°06'0 0.0
2018-Mar-22 16:25N 27°00' W 080°06'0 0.0
2018-Mar-22 15:58N 27°00' W 080°06'0 0.0
2018-Mar-22 15:28N 27°00' W 080°06'  
Track history (hours):
 
Tides and Currents Weather Stations Pressure Air Temp Water Temp Dewpoint Dewpoint Depression Visibility Wind Speed Wind Dir Waves Ship Positions

M/V Who Cares

Owner: WINGSTONE TOYS COMPANY LLC, PAOLI, PA. More information available from US FCC via Universal Licensing System.

Last reported at 2018-Mar-25 10:33 UTC. Time now 2018-May-24 00:14 UTC.
Position N 24°27' W 075°48'.
Warning: this ship's position is 59 days out of date.

Length 35 m.

Type: Pleasure craft. MMSI: 366762070.

Date/timePositionNaut miles runAvg speedWind from/ knotsBaromVisibWave heightAir tempDewpointWater temp
2018-Mar-25 10:33N 24°27' W 075°48'1 8.6
2018-Mar-25 10:28N 24°27' W 075°48'4 8.4
2018-Mar-25 09:58N 24°29' W 075°53'5 8.1
2018-Mar-25 09:24N 24°31' W 075°57'4 7.7
2018-Mar-25 08:54N 24°32' W 076°01'3 7.9
2018-Mar-25 08:30N 24°33' W 076°04'4 7.9
2018-Mar-25 07:57N 24°35' W 076°09'258 6.5
2018-Mar-23 16:26N 27°00' W 080°06'0 0.9
2018-Mar-23 16:01N 27°00' W 080°06'0 0.0
2018-Mar-23 15:31N 27°00' W 080°06'0 0.0
2018-Mar-23 14:55N 27°00' W 080°06'0 0.0
2018-Mar-23 14:22N 27°00' W 080°06'0 0.0
2018-Mar-23 14:01N 27°00' W 080°06'0 0.0
2018-Mar-23 13:28N 27°00' W 080°06'0 0.0
2018-Mar-23 13:01N 27°00' W 080°06'0 0.0
2018-Mar-23 12:25N 27°00' W 080°06'0 0.0
2018-Mar-23 11:55N 27°00' W 080°06'0 0.0
2018-Mar-23 11:28N 27°00' W 080°06'0 0.0
2018-Mar-23 10:55N 27°00' W 080°06'0 0.0
2018-Mar-23 10:28N 27°00' W 080°06'0 0.0
2018-Mar-23 09:58N 27°00' W 080°06'0 0.0
2018-Mar-23 09:22N 27°00' W 080°06'0 0.0
2018-Mar-23 08:58N 27°00' W 080°06'0 0.0
2018-Mar-23 08:22N 27°00' W 080°06'0 0.0
2018-Mar-23 07:58N 27°00' W 080°06'0 0.0
2018-Mar-23 07:28N 27°00' W 080°06'0 0.0
2018-Mar-23 06:43N 27°00' W 080°06'0 0.0
2018-Mar-23 06:25N 27°00' W 080°06'0 0.0
2018-Mar-23 05:55N 27°00' W 080°06'0 0.0
2018-Mar-23 05:28N 27°00' W 080°06'0 0.0
2018-Mar-23 04:58N 27°00' W 080°06'0 0.0
2018-Mar-23 04:28N 27°00' W 080°06'0 0.0
2018-Mar-23 03:49N 27°00' W 080°06'0 0.0
2018-Mar-23 03:19N 27°00' W 080°06'0 0.0
2018-Mar-23 02:58N 27°00' W 080°06'0 0.0
2018-Mar-23 02:28N 27°00' W 080°06'0 0.0
2018-Mar-23 01:58N 27°00' W 080°06'0 0.0
2018-Mar-23 01:22N 27°00' W 080°06'0 0.0
2018-Mar-23 00:52N 27°00' W 080°06'0 0.0
2018-Mar-23 00:22N 27°00' W 080°06'0 0.0
2018-Mar-22 23:46N 27°00' W 080°06'0 0.0
2018-Mar-22 23:28N 27°00' W 080°06'0 0.0
2018-Mar-22 22:58N 27°00' W 080°06'0 0.0
2018-Mar-22 22:25N 27°00' W 080°06'0 0.0
2018-Mar-22 21:55N 27°00' W 080°06'0 0.0
2018-Mar-22 21:28N 27°00' W 080°06'0 0.0
2018-Mar-22 19:22N 27°00' W 080°06'0 0.0
2018-Mar-22 18:55N 27°00' W 080°06'0 0.0
2018-Mar-22 18:19N 27°00' W 080°06'0 0.0
2018-Mar-22 17:58N 27°00' W 080°06'0 0.0
2018-Mar-22 17:19N 27°00' W 080°06'0 0.0
2018-Mar-22 16:55N 27°00' W 080°06'0 0.0
2018-Mar-22 16:25N 27°00' W 080°06'0 0.0
2018-Mar-22 15:58N 27°00' W 080°06'0 0.0
2018-Mar-22 15:28N 27°00' W 080°06'  

Dump ship's entire track history